Погода Тацинна неделю

Ростовская область, Россия

23 - 29 июля
  • 23июля
    Сегодня
    +15°
    +27°
    Пасмурно, дождь
    ВремяПогодаТемператураВлажностьДавлениеВетер, м/сВероятность осадков
    00:00Практически безоблачно+22°C57 %735 мм4.2 м/с3 %
    03:00Небольшая облачность+20°C70 %735 мм4.3 м/с4 %
    06:00Небольшая облачность+19°C75 %735 мм3.6 м/с12 %
    09:00Облачно с прояснениями+22°C63 %735 мм4.1 м/с19 %
    12:00Небольшая облачность+24°C51 %734 мм2.0 м/с34 %
    15:00Пасмурно, дождь+25°C61 %734 мм3.1 м/с46 %
    18:00Ясно и безоблачно+26°C52 %733 мм1.3 м/с35 %
    21:00Ясно и безоблачно+21°C67 %734 мм3.2 м/с27 %
  • 24июля
    Среда
    +14°
    +28°
    Небольшая облачность, возможен дождь с грозой
    ВремяПогодаТемператураВлажностьДавлениеВетер, м/сВероятность осадков
    00:00Ясно и безоблачно+19°C75 %733 мм2.4 м/с5 %
    03:00Ясно и безоблачно+17°C85 %733 мм2.7 м/с1 %
    06:00Ясно и безоблачно+17°C82 %733 мм3.3 м/с2 %
    09:00Ясно и безоблачно+23°C58 %733 мм3.8 м/с3 %
    12:00Небольшая облачность, ливень+25°C56 %734 мм4.3 м/с38 %
    15:00Небольшая облачность, возможен дождь с грозой+27°C47 %733 мм4.1 м/с46 %
    18:00Практически безоблачно+26°C52 %733 мм4.0 м/с48 %
    21:00Ясно и безоблачно+21°C73 %734 мм2.4 м/с6 %
  • 25июля
    Четверг
    +15°
    +30°
    Практически безоблачно
    ВремяПогодаТемператураВлажностьДавлениеВетер, м/сВероятность осадков
    00:00Ясно и безоблачно+18°C85 %734 мм1.5 м/с2 %
    03:00Ясно и безоблачно+16°C88 %734 мм1.7 м/с2 %
    06:00Ясно и безоблачно+16°C82 %734 мм1.9 м/с2 %
    09:00Ясно и безоблачно+23°C44 %734 мм2.5 м/с2 %
    12:00Небольшая облачность+28°C30 %734 мм2.5 м/с2 %
    15:00Практически безоблачно+29°C25 %734 мм2.4 м/с2 %
    18:00Практически безоблачно+28°C27 %734 мм5.4 м/с2 %
    21:00Ясно и безоблачно+22°C41 %734 мм2.1 м/с2 %
  • 26июля
    Пятница
    +14°
    +30°
    Практически безоблачно
    ВремяПогодаТемператураВлажностьДавлениеВетер, м/сВероятность осадков
    00:00Ясно и безоблачно+19°C47 %734 мм2.2 м/с2 %
    03:00Ясно и безоблачно+19°C46 %734 мм1.4 м/с2 %
    06:00Ясно и безоблачно+17°C55 %734 мм0.9 м/с2 %
    09:00Ясно и безоблачно+24°C40 %735 мм2.4 м/с2 %
    12:00Небольшая облачность+28°C36 %736 мм3.3 м/с3 %
    15:00Практически безоблачно+30°C32 %736 мм2.3 м/с5 %
    18:00Небольшая облачность+29°C28 %736 мм5.6 м/с2 %
    21:00Ясно и безоблачно+24°C36 %737 мм3.3 м/с2 %
  • 27июля
    Суббота
    +15°
    +30°
    Ясно и безоблачно
    ВремяПогодаТемператураВлажностьДавлениеВетер, м/сВероятность осадков
    00:00Ясно и безоблачно+20°C38 %738 мм3.5 м/с2 %
    03:00Ясно и безоблачно+17°C46 %739 мм2.8 м/с2 %
    06:00Ясно и безоблачно+16°C52 %740 мм2.9 м/с2 %
    09:00Ясно и безоблачно+24°C37 %741 мм3.8 м/с2 %
    12:00Ясно и безоблачно+28°C28 %741 мм4.4 м/с2 %
    15:00Ясно и безоблачно+30°C24 %741 мм4.5 м/с2 %
    18:00Ясно и безоблачно+28°C27 %741 мм4.3 м/с2 %
    21:00Ясно и безоблачно+23°C39 %742 мм1.9 м/с2 %
Мы используем cookies
Соглашаюсь